sensor_id;sensor_type;location;lat;lon;timestamp;P1;durP1;ratioP1;P2;durP2;ratioP2
19213;SDS011;9741;51.020;5.304;2023-03-19T00:01:12;0.50;;;0.50;;
19213;SDS011;9741;51.020;5.304;2023-03-19T00:03:39;0.30;;;0.30;;
19213;SDS011;9741;51.020;5.304;2023-03-19T00:06:07;1.00;;;0.90;;
19213;SDS011;9741;51.020;5.304;2023-03-19T00:08:35;2.37;;;1.03;;
19213;SDS011;9741;51.020;5.304;2023-03-19T00:11:08;0.40;;;0.40;;
19213;SDS011;9741;51.020;5.304;2023-03-19T00:13:37;1.00;;;0.90;;
19213;SDS011;9741;51.020;5.304;2023-03-19T00:16:05;1.00;;;0.83;;
19213;SDS011;9741;51.020;5.304;2023-03-19T00:18:38;6.13;;;0.60;;
19213;SDS011;9741;51.020;5.304;2023-03-19T00:21:05;7.03;;;0.73;;
19213;SDS011;9741;51.020;5.304;2023-03-19T00:23:35;0.80;;;0.60;;
19213;SDS011;9741;51.020;5.304;2023-03-19T00:26:03;0.50;;;0.50;;
19213;SDS011;9741;51.020;5.304;2023-03-19T00:28:32;0.90;;;0.70;;
19213;SDS011;9741;51.020;5.304;2023-03-19T00:31:08;1.37;;;0.93;;
19213;SDS011;9741;51.020;5.304;2023-03-19T00:33:37;1.50;;;1.30;;
19213;SDS011;9741;51.020;5.304;2023-03-19T00:36:05;0.70;;;0.70;;
19213;SDS011;9741;51.020;5.304;2023-03-19T00:38:33;0.90;;;0.60;;
19213;SDS011;9741;51.020;5.304;2023-03-19T00:41:01;1.27;;;0.40;;
19213;SDS011;9741;51.020;5.304;2023-03-19T00:43:29;1.43;;;1.17;;
19213;SDS011;9741;51.020;5.304;2023-03-19T00:45:57;3.30;;;0.60;;
19213;SDS011;9741;51.020;5.304;2023-03-19T00:48:28;0.57;;;0.57;;
19213;SDS011;9741;51.020;5.304;2023-03-19T00:51:02;1.10;;;0.50;;
19213;SDS011;9741;51.020;5.304;2023-03-19T00:53:35;2.87;;;0.83;;
19213;SDS011;9741;51.020;5.304;2023-03-19T00:56:03;0.43;;;0.43;;
19213;SDS011;9741;51.020;5.304;2023-03-19T00:58:32;0.47;;;0.47;;
19213;SDS011;9741;51.020;5.304;2023-03-19T01:01:04;1.03;;;0.60;;
19213;SDS011;9741;51.020;5.304;2023-03-19T01:03:32;0.53;;;0.53;;
19213;SDS011;9741;51.020;5.304;2023-03-19T01:06:13;0.77;;;0.77;;
19213;SDS011;9741;51.020;5.304;2023-03-19T01:08:43;0.83;;;0.83;;
19213;SDS011;9741;51.020;5.304;2023-03-19T01:11:14;1.13;;;0.80;;
19213;SDS011;9741;51.020;5.304;2023-03-19T01:13:43;0.50;;;0.50;;
19213;SDS011;9741;51.020;5.304;2023-03-19T01:16:10;1.40;;;1.30;;
19213;SDS011;9741;51.020;5.304;2023-03-19T01:18:38;0.40;;;0.40;;
19213;SDS011;9741;51.020;5.304;2023-03-19T01:21:10;2.30;;;0.77;;
19213;SDS011;9741;51.020;5.304;2023-03-19T01:23:37;0.60;;;0.60;;
19213;SDS011;9741;51.020;5.304;2023-03-19T01:26:05;0.80;;;0.80;;
19213;SDS011;9741;51.020;5.304;2023-03-19T01:28:34;0.33;;;0.33;;
19213;SDS011;9741;51.020;5.304;2023-03-19T01:31:04;0.77;;;0.50;;
19213;SDS011;9741;51.020;5.304;2023-03-19T01:33:33;0.43;;;0.43;;
19213;SDS011;9741;51.020;5.304;2023-03-19T01:36:05;0.50;;;0.50;;
19213;SDS011;9741;51.020;5.304;2023-03-19T01:38:35;0.50;;;0.43;;
19213;SDS011;9741;51.020;5.304;2023-03-19T01:41:03;1.33;;;0.90;;
19213;SDS011;9741;51.020;5.304;2023-03-19T01:43:31;0.67;;;0.67;;
19213;SDS011;9741;51.020;5.304;2023-03-19T01:46:03;1.83;;;1.00;;
19213;SDS011;9741;51.020;5.304;2023-03-19T01:48:36;1.50;;;1.40;;
19213;SDS011;9741;51.020;5.304;2023-03-19T01:51:06;0.40;;;0.40;;
19213;SDS011;9741;51.020;5.304;2023-03-19T01:53:39;3.30;;;0.50;;
19213;SDS011;9741;51.020;5.304;2023-03-19T01:56:11;1.67;;;0.77;;
19213;SDS011;9741;51.020;5.304;2023-03-19T01:58:45;1.27;;;0.70;;
19213;SDS011;9741;51.020;5.304;2023-03-19T02:01:16;1.13;;;0.83;;
19213;SDS011;9741;51.020;5.304;2023-03-19T02:03:45;1.57;;;1.00;;
19213;SDS011;9741;51.020;5.304;2023-03-19T02:06:13;1.60;;;0.97;;
19213;SDS011;9741;51.020;5.304;2023-03-19T02:08:43;0.93;;;0.93;;
19213;SDS011;9741;51.020;5.304;2023-03-19T02:11:14;0.77;;;0.77;;
19213;SDS011;9741;51.020;5.304;2023-03-19T02:13:44;1.37;;;0.87;;
19213;SDS011;9741;51.020;5.304;2023-03-19T02:16:12;0.60;;;0.60;;
19213;SDS011;9741;51.020;5.304;2023-03-19T02:18:42;0.60;;;0.60;;
19213;SDS011;9741;51.020;5.304;2023-03-19T02:21:10;1.40;;;0.90;;
19213;SDS011;9741;51.020;5.304;2023-03-19T02:23:44;0.60;;;0.53;;
19213;SDS011;9741;51.020;5.304;2023-03-19T02:26:21;0.70;;;0.70;;
19213;SDS011;9741;51.020;5.304;2023-03-19T02:28:52;0.73;;;0.63;;
19213;SDS011;9741;51.020;5.304;2023-03-19T02:31:19;0.77;;;0.60;;
19213;SDS011;9741;51.020;5.304;2023-03-19T02:33:55;1.97;;;1.40;;
19213;SDS011;9741;51.020;5.304;2023-03-19T02:36:25;1.23;;;1.13;;
19213;SDS011;9741;51.020;5.304;2023-03-19T02:38:59;1.43;;;0.80;;
19213;SDS011;9741;51.020;5.304;2023-03-19T02:41:31;0.80;;;0.80;;
19213;SDS011;9741;51.020;5.304;2023-03-19T02:44:00;1.00;;;0.90;;
19213;SDS011;9741;51.020;5.304;2023-03-19T02:46:29;1.37;;;1.23;;
19213;SDS011;9741;51.020;5.304;2023-03-19T02:48:57;0.70;;;0.70;;
19213;SDS011;9741;51.020;5.304;2023-03-19T02:51:24;5.30;;;0.90;;
19213;SDS011;9741;51.020;5.304;2023-03-19T02:53:51;1.40;;;0.57;;
19213;SDS011;9741;51.020;5.304;2023-03-19T02:56:19;0.70;;;0.70;;
19213;SDS011;9741;51.020;5.304;2023-03-19T02:58:47;0.67;;;0.67;;
19213;SDS011;9741;51.020;5.304;2023-03-19T03:01:15;1.83;;;0.70;;
19213;SDS011;9741;51.020;5.304;2023-03-19T03:03:43;0.63;;;0.63;;
19213;SDS011;9741;51.020;5.304;2023-03-19T03:06:11;0.60;;;0.60;;
19213;SDS011;9741;51.020;5.304;2023-03-19T03:08:38;0.87;;;0.67;;
19213;SDS011;9741;51.020;5.304;2023-03-19T03:11:06;5.80;;;0.73;;
19213;SDS011;9741;51.020;5.304;2023-03-19T03:13:36;1.03;;;0.93;;
19213;SDS011;9741;51.020;5.304;2023-03-19T03:16:08;1.60;;;0.77;;
19213;SDS011;9741;51.020;5.304;2023-03-19T03:18:37;1.17;;;0.73;;
19213;SDS011;9741;51.020;5.304;2023-03-19T03:21:05;0.93;;;0.93;;
19213;SDS011;9741;51.020;5.304;2023-03-19T03:23:33;0.83;;;0.83;;
19213;SDS011;9741;51.020;5.304;2023-03-19T03:26:01;2.27;;;0.70;;
19213;SDS011;9741;51.020;5.304;2023-03-19T03:28:29;1.00;;;0.83;;
19213;SDS011;9741;51.020;5.304;2023-03-19T03:30:59;2.70;;;0.93;;
19213;SDS011;9741;51.020;5.304;2023-03-19T03:33:32;0.83;;;0.50;;
19213;SDS011;9741;51.020;5.304;2023-03-19T03:35:59;0.60;;;0.60;;
19213;SDS011;9741;51.020;5.304;2023-03-19T03:38:28;1.07;;;0.80;;
19213;SDS011;9741;51.020;5.304;2023-03-19T03:40:57;0.43;;;0.43;;
19213;SDS011;9741;51.020;5.304;2023-03-19T03:43:25;1.27;;;0.63;;
19213;SDS011;9741;51.020;5.304;2023-03-19T03:45:52;1.70;;;1.13;;
19213;SDS011;9741;51.020;5.304;2023-03-19T03:48:20;1.57;;;1.10;;
19213;SDS011;9741;51.020;5.304;2023-03-19T03:50:48;0.63;;;0.63;;
19213;SDS011;9741;51.020;5.304;2023-03-19T03:53:16;1.10;;;1.00;;
19213;SDS011;9741;51.020;5.304;2023-03-19T03:55:44;1.20;;;1.10;;
19213;SDS011;9741;51.020;5.304;2023-03-19T03:58:11;7.57;;;0.83;;
19213;SDS011;9741;51.020;5.304;2023-03-19T04:00:41;3.53;;;0.90;;
19213;SDS011;9741;51.020;5.304;2023-03-19T04:03:09;2.20;;;1.03;;
19213;SDS011;9741;51.020;5.304;2023-03-19T04:05:36;0.77;;;0.73;;
19213;SDS011;9741;51.020;5.304;2023-03-19T04:08:09;0.60;;;0.60;;
19213;SDS011;9741;51.020;5.304;2023-03-19T04:10:38;2.10;;;1.20;;
19213;SDS011;9741;51.020;5.304;2023-03-19T04:13:09;0.47;;;0.47;;
19213;SDS011;9741;51.020;5.304;2023-03-19T04:15:37;0.93;;;0.93;;
19213;SDS011;9741;51.020;5.304;2023-03-19T04:18:07;0.97;;;0.87;;
19213;SDS011;9741;51.020;5.304;2023-03-19T04:20:35;1.03;;;0.93;;
19213;SDS011;9741;51.020;5.304;2023-03-19T04:23:03;2.83;;;1.23;;
19213;SDS011;9741;51.020;5.304;2023-03-19T04:25:32;1.30;;;1.20;;
19213;SDS011;9741;51.020;5.304;2023-03-19T04:28:00;0.50;;;0.50;;
19213;SDS011;9741;51.020;5.304;2023-03-19T04:30:28;0.97;;;0.77;;
19213;SDS011;9741;51.020;5.304;2023-03-19T04:32:58;2.27;;;1.07;;
19213;SDS011;9741;51.020;5.304;2023-03-19T04:35:26;1.10;;;1.10;;
19213;SDS011;9741;51.020;5.304;2023-03-19T04:37:53;0.90;;;0.80;;
19213;SDS011;9741;51.020;5.304;2023-03-19T04:40:20;1.80;;;1.13;;
19213;SDS011;9741;51.020;5.304;2023-03-19T04:42:48;1.70;;;1.43;;
19213;SDS011;9741;51.020;5.304;2023-03-19T04:45:16;0.50;;;0.50;;
19213;SDS011;9741;51.020;5.304;2023-03-19T04:47:44;1.43;;;1.20;;
19213;SDS011;9741;51.020;5.304;2023-03-19T04:50:11;1.77;;;1.37;;
19213;SDS011;9741;51.020;5.304;2023-03-19T04:52:39;1.37;;;0.90;;
19213;SDS011;9741;51.020;5.304;2023-03-19T04:55:07;2.03;;;1.10;;
19213;SDS011;9741;51.020;5.304;2023-03-19T04:57:35;0.83;;;0.83;;
19213;SDS011;9741;51.020;5.304;2023-03-19T05:00:05;0.70;;;0.70;;
19213;SDS011;9741;51.020;5.304;2023-03-19T05:02:34;1.27;;;1.13;;
19213;SDS011;9741;51.020;5.304;2023-03-19T05:05:03;0.70;;;0.70;;
19213;SDS011;9741;51.020;5.304;2023-03-19T05:07:32;1.27;;;1.10;;
19213;SDS011;9741;51.020;5.304;2023-03-19T05:09:59;1.30;;;1.03;;
19213;SDS011;9741;51.020;5.304;2023-03-19T05:12:29;5.60;;;1.87;;
19213;SDS011;9741;51.020;5.304;2023-03-19T05:14:56;1.47;;;1.37;;
19213;SDS011;9741;51.020;5.304;2023-03-19T05:17:24;1.23;;;0.93;;
19213;SDS011;9741;51.020;5.304;2023-03-19T05:19:52;1.60;;;1.00;;
19213;SDS011;9741;51.020;5.304;2023-03-19T05:22:20;3.67;;;1.73;;
19213;SDS011;9741;51.020;5.304;2023-03-19T05:24:48;5.07;;;1.40;;
19213;SDS011;9741;51.020;5.304;2023-03-19T05:27:16;1.13;;;1.03;;
19213;SDS011;9741;51.020;5.304;2023-03-19T05:29:43;1.67;;;1.57;;
19213;SDS011;9741;51.020;5.304;2023-03-19T05:32:11;1.10;;;0.97;;
19213;SDS011;9741;51.020;5.304;2023-03-19T05:34:40;2.70;;;1.67;;
19213;SDS011;9741;51.020;5.304;2023-03-19T05:37:08;1.73;;;0.80;;
19213;SDS011;9741;51.020;5.304;2023-03-19T05:39:36;2.00;;;1.60;;
19213;SDS011;9741;51.020;5.304;2023-03-19T05:42:03;0.93;;;0.73;;
19213;SDS011;9741;51.020;5.304;2023-03-19T05:44:31;1.70;;;1.00;;
19213;SDS011;9741;51.020;5.304;2023-03-19T05:46:58;2.07;;;1.30;;
19213;SDS011;9741;51.020;5.304;2023-03-19T05:49:26;1.90;;;1.10;;
19213;SDS011;9741;51.020;5.304;2023-03-19T05:51:55;1.93;;;1.30;;
19213;SDS011;9741;51.020;5.304;2023-03-19T05:54:23;1.60;;;1.00;;
19213;SDS011;9741;51.020;5.304;2023-03-19T05:56:50;1.90;;;1.30;;
19213;SDS011;9741;51.020;5.304;2023-03-19T05:59:20;1.37;;;1.27;;
19213;SDS011;9741;51.020;5.304;2023-03-19T06:01:49;3.13;;;1.53;;
19213;SDS011;9741;51.020;5.304;2023-03-19T06:04:16;1.83;;;1.40;;
19213;SDS011;9741;51.020;5.304;2023-03-19T06:06:44;1.13;;;1.00;;
19213;SDS011;9741;51.020;5.304;2023-03-19T06:09:13;2.30;;;1.83;;
19213;SDS011;9741;51.020;5.304;2023-03-19T06:11:41;3.43;;;1.23;;
19213;SDS011;9741;51.020;5.304;2023-03-19T06:14:09;1.23;;;1.13;;
19213;SDS011;9741;51.020;5.304;2023-03-19T06:16:36;1.27;;;1.17;;
19213;SDS011;9741;51.020;5.304;2023-03-19T06:19:03;0.77;;;0.77;;
19213;SDS011;9741;51.020;5.304;2023-03-19T06:21:30;1.73;;;1.30;;
19213;SDS011;9741;51.020;5.304;2023-03-19T06:23:57;2.60;;;1.63;;
19213;SDS011;9741;51.020;5.304;2023-03-19T06:26:26;1.20;;;1.10;;
19213;SDS011;9741;51.020;5.304;2023-03-19T06:28:53;1.60;;;1.50;;
19213;SDS011;9741;51.020;5.304;2023-03-19T06:31:21;1.47;;;1.30;;
19213;SDS011;9741;51.020;5.304;2023-03-19T06:33:48;0.97;;;0.87;;
19213;SDS011;9741;51.020;5.304;2023-03-19T06:36:16;0.70;;;0.70;;
19213;SDS011;9741;51.020;5.304;2023-03-19T06:38:44;1.20;;;1.13;;
19213;SDS011;9741;51.020;5.304;2023-03-19T06:41:14;2.13;;;1.47;;
19213;SDS011;9741;51.020;5.304;2023-03-19T06:43:47;1.27;;;1.17;;
19213;SDS011;9741;51.020;5.304;2023-03-19T06:46:15;3.10;;;1.40;;
19213;SDS011;9741;51.020;5.304;2023-03-19T06:48:42;1.97;;;1.77;;
19213;SDS011;9741;51.020;5.304;2023-03-19T06:51:10;1.20;;;0.80;;
19213;SDS011;9741;51.020;5.304;2023-03-19T06:53:37;2.60;;;1.73;;
19213;SDS011;9741;51.020;5.304;2023-03-19T06:56:05;2.80;;;1.80;;
19213;SDS011;9741;51.020;5.304;2023-03-19T06:58:33;3.20;;;1.60;;
19213;SDS011;9741;51.020;5.304;2023-03-19T07:01:02;2.00;;;1.50;;
19213;SDS011;9741;51.020;5.304;2023-03-19T07:03:30;3.37;;;2.00;;
19213;SDS011;9741;51.020;5.304;2023-03-19T07:06:00;2.10;;;1.53;;
19213;SDS011;9741;51.020;5.304;2023-03-19T07:08:27;1.20;;;1.10;;
19213;SDS011;9741;51.020;5.304;2023-03-19T07:10:55;0.90;;;0.87;;
19213;SDS011;9741;51.020;5.304;2023-03-19T07:13:23;3.43;;;1.70;;
19213;SDS011;9741;51.020;5.304;2023-03-19T07:15:51;0.87;;;0.87;;
19213;SDS011;9741;51.020;5.304;2023-03-19T07:18:19;1.80;;;1.30;;
19213;SDS011;9741;51.020;5.304;2023-03-19T07:20:47;2.40;;;1.23;;
19213;SDS011;9741;51.020;5.304;2023-03-19T07:23:14;1.50;;;1.40;;
19213;SDS011;9741;51.020;5.304;2023-03-19T07:25:42;2.13;;;1.10;;
19213;SDS011;9741;51.020;5.304;2023-03-19T07:28:09;1.30;;;1.20;;
19213;SDS011;9741;51.020;5.304;2023-03-19T07:30:37;2.30;;;1.33;;
19213;SDS011;9741;51.020;5.304;2023-03-19T07:33:05;1.30;;;1.17;;
19213;SDS011;9741;51.020;5.304;2023-03-19T07:35:34;1.17;;;1.03;;
19213;SDS011;9741;51.020;5.304;2023-03-19T07:38:02;4.20;;;1.40;;
19213;SDS011;9741;51.020;5.304;2023-03-19T07:40:32;4.80;;;1.50;;
19213;SDS011;9741;51.020;5.304;2023-03-19T07:42:59;1.50;;;1.40;;
19213;SDS011;9741;51.020;5.304;2023-03-19T07:45:28;1.77;;;1.40;;
19213;SDS011;9741;51.020;5.304;2023-03-19T07:47:57;2.33;;;2.13;;
19213;SDS011;9741;51.020;5.304;2023-03-19T07:50:28;3.47;;;1.53;;
19213;SDS011;9741;51.020;5.304;2023-03-19T07:52:57;4.17;;;1.57;;
19213;SDS011;9741;51.020;5.304;2023-03-19T07:55:25;1.67;;;1.40;;
19213;SDS011;9741;51.020;5.304;2023-03-19T07:57:53;1.90;;;1.70;;
19213;SDS011;9741;51.020;5.304;2023-03-19T08:00:21;3.63;;;2.20;;
19213;SDS011;9741;51.020;5.304;2023-03-19T08:02:48;3.67;;;1.10;;
19213;SDS011;9741;51.020;5.304;2023-03-19T08:05:16;3.73;;;1.70;;
19213;SDS011;9741;51.020;5.304;2023-03-19T08:07:43;1.33;;;1.20;;
19213;SDS011;9741;51.020;5.304;2023-03-19T08:10:13;3.73;;;2.10;;
19213;SDS011;9741;51.020;5.304;2023-03-19T08:12:40;2.73;;;2.13;;
19213;SDS011;9741;51.020;5.304;2023-03-19T08:15:08;3.67;;;2.40;;
19213;SDS011;9741;51.020;5.304;2023-03-19T08:17:36;1.90;;;1.03;;
19213;SDS011;9741;51.020;5.304;2023-03-19T08:20:05;4.07;;;2.17;;
19213;SDS011;9741;51.020;5.304;2023-03-19T08:22:34;4.63;;;2.60;;
19213;SDS011;9741;51.020;5.304;2023-03-19T08:25:01;3.87;;;2.60;;
19213;SDS011;9741;51.020;5.304;2023-03-19T08:27:30;3.40;;;1.73;;
19213;SDS011;9741;51.020;5.304;2023-03-19T08:30:00;1.23;;;1.13;;
19213;SDS011;9741;51.020;5.304;2023-03-19T08:32:28;2.00;;;1.63;;
19213;SDS011;9741;51.020;5.304;2023-03-19T08:34:55;1.63;;;1.10;;
19213;SDS011;9741;51.020;5.304;2023-03-19T08:37:23;6.07;;;2.20;;
19213;SDS011;9741;51.020;5.304;2023-03-19T08:39:51;4.53;;;2.20;;
19213;SDS011;9741;51.020;5.304;2023-03-19T08:42:19;1.37;;;1.13;;
19213;SDS011;9741;51.020;5.304;2023-03-19T08:44:48;2.33;;;1.90;;
19213;SDS011;9741;51.020;5.304;2023-03-19T08:47:17;6.73;;;1.83;;
19213;SDS011;9741;51.020;5.304;2023-03-19T08:49:49;4.90;;;2.00;;
19213;SDS011;9741;51.020;5.304;2023-03-19T08:52:17;3.30;;;1.60;;
19213;SDS011;9741;51.020;5.304;2023-03-19T08:54:45;2.13;;;1.13;;
19213;SDS011;9741;51.020;5.304;2023-03-19T08:57:14;1.67;;;0.88;;
19213;SDS011;9741;51.020;5.304;2023-03-19T08:59:41;2.58;;;1.42;;
19213;SDS011;9741;51.020;5.304;2023-03-19T09:02:13;1.17;;;0.95;;
19213;SDS011;9741;51.020;5.304;2023-03-19T09:04:40;2.10;;;1.05;;
19213;SDS011;9741;51.020;5.304;2023-03-19T09:07:09;2.17;;;1.58;;
19213;SDS011;9741;51.020;5.304;2023-03-19T09:09:39;2.55;;;1.23;;
19213;SDS011;9741;51.020;5.304;2023-03-19T09:12:07;1.55;;;1.05;;
19213;SDS011;9741;51.020;5.304;2023-03-19T09:14:35;1.60;;;1.40;;
19213;SDS011;9741;51.020;5.304;2023-03-19T09:17:06;1.75;;;1.23;;
19213;SDS011;9741;51.020;5.304;2023-03-19T09:19:35;3.40;;;1.27;;
19213;SDS011;9741;51.020;5.304;2023-03-19T09:22:05;3.55;;;1.35;;
19213;SDS011;9741;51.020;5.304;2023-03-19T09:24:33;1.42;;;1.15;;
19213;SDS011;9741;51.020;5.304;2023-03-19T09:27:01;1.17;;;1.08;;
19213;SDS011;9741;51.020;5.304;2023-03-19T09:29:29;7.80;;;1.77;;
19213;SDS011;9741;51.020;5.304;2023-03-19T09:31:59;2.88;;;1.05;;
19213;SDS011;9741;51.020;5.304;2023-03-19T09:34:27;1.77;;;0.90;;
19213;SDS011;9741;51.020;5.304;2023-03-19T09:36:56;2.10;;;1.40;;
19213;SDS011;9741;51.020;5.304;2023-03-19T09:39:23;2.65;;;1.10;;
19213;SDS011;9741;51.020;5.304;2023-03-19T09:41:56;3.38;;;1.00;;
19213;SDS011;9741;51.020;5.304;2023-03-19T09:44:35;1.10;;;0.70;;
19213;SDS011;9741;51.020;5.304;2023-03-19T09:47:09;1.30;;;0.85;;
19213;SDS011;9741;51.020;5.304;2023-03-19T09:49:51;1.77;;;1.27;;
19213;SDS011;9741;51.020;5.304;2023-03-19T09:52:26;0.70;;;0.60;;
19213;SDS011;9741;51.020;5.304;2023-03-19T09:55:09;0.30;;;0.25;;
19213;SDS011;9741;51.020;5.304;2023-03-19T09:57:58;4.85;;;1.15;;
19213;SDS011;9741;51.020;5.304;2023-03-19T10:00:28;8.88;;;0.80;;
19213;SDS011;9741;51.020;5.304;2023-03-19T10:03:00;1.65;;;0.52;;
19213;SDS011;9741;51.020;5.304;2023-03-19T10:05:36;1.43;;;0.80;;
19213;SDS011;9741;51.020;5.304;2023-03-19T10:08:18;0.30;;;0.30;;
19213;SDS011;9741;51.020;5.304;2023-03-19T10:11:36;2.17;;;0.70;;
19213;SDS011;9741;51.020;5.304;2023-03-19T10:14:39;0.47;;;0.40;;
19213;SDS011;9741;51.020;5.304;2023-03-19T10:17:16;1.85;;;0.57;;
19213;SDS011;9741;51.020;5.304;2023-03-19T10:19:51;0.75;;;0.75;;
19213;SDS011;9741;51.020;5.304;2023-03-19T10:22:23;0.63;;;0.50;;
19213;SDS011;9741;51.020;5.304;2023-03-19T10:24:58;3.55;;;1.40;;
19213;SDS011;9741;51.020;5.304;2023-03-19T10:27:27;0.90;;;0.75;;
19213;SDS011;9741;51.020;5.304;2023-03-19T10:29:54;0.45;;;0.45;;
19213;SDS011;9741;51.020;5.304;2023-03-19T10:32:27;0.68;;;0.55;;
19213;SDS011;9741;51.020;5.304;2023-03-19T10:35:05;0.70;;;0.70;;
19213;SDS011;9741;51.020;5.304;2023-03-19T10:37:38;7.88;;;0.52;;
19213;SDS011;9741;51.020;5.304;2023-03-19T10:40:12;1.40;;;0.80;;
19213;SDS011;9741;51.020;5.304;2023-03-19T10:42:51;1.02;;;0.93;;
19213;SDS011;9741;51.020;5.304;2023-03-19T10:45:38;4.60;;;1.58;;
19213;SDS011;9741;51.020;5.304;2023-03-19T10:48:05;0.30;;;0.30;;
19213;SDS011;9741;51.020;5.304;2023-03-19T10:50:41;1.40;;;1.00;;
19213;SDS011;9741;51.020;5.304;2023-03-19T10:53:21;1.65;;;0.95;;
19213;SDS011;9741;51.020;5.304;2023-03-19T10:56:01;6.30;;;2.38;;
19213;SDS011;9741;51.020;5.304;2023-03-19T10:58:30;3.25;;;0.95;;
19213;SDS011;9741;51.020;5.304;2023-03-19T11:01:03;0.88;;;0.88;;
19213;SDS011;9741;51.020;5.304;2023-03-19T11:03:33;1.52;;;1.25;;
19213;SDS011;9741;51.020;5.304;2023-03-19T11:06:03;1.30;;;0.43;;
19213;SDS011;9741;51.020;5.304;2023-03-19T11:08:41;1.60;;;0.95;;
19213;SDS011;9741;51.020;5.304;2023-03-19T11:11:22;1.23;;;0.40;;
19213;SDS011;9741;51.020;5.304;2023-03-19T11:13:54;0.32;;;0.32;;
19213;SDS011;9741;51.020;5.304;2023-03-19T11:16:22;0.60;;;0.45;;
19213;SDS011;9741;51.020;5.304;2023-03-19T11:18:50;1.83;;;0.77;;
19213;SDS011;9741;51.020;5.304;2023-03-19T11:21:22;1.23;;;0.55;;
19213;SDS011;9741;51.020;5.304;2023-03-19T11:23:58;0.52;;;0.35;;
19213;SDS011;9741;51.020;5.304;2023-03-19T11:26:29;1.92;;;0.52;;
19213;SDS011;9741;51.020;5.304;2023-03-19T11:29:00;1.35;;;0.52;;
19213;SDS011;9741;51.020;5.304;2023-03-19T11:31:31;0.35;;;0.35;;
19213;SDS011;9741;51.020;5.304;2023-03-19T11:34:15;1.75;;;0.30;;
19213;SDS011;9741;51.020;5.304;2023-03-19T11:36:52;0.28;;;0.28;;
19213;SDS011;9741;51.020;5.304;2023-03-19T11:39:32;0.68;;;0.60;;
19213;SDS011;9741;51.020;5.304;2023-03-19T11:42:18;0.10;;;0.10;;
19213;SDS011;9741;51.020;5.304;2023-03-19T11:45:10;0.32;;;0.32;;
19213;SDS011;9741;51.020;5.304;2023-03-19T11:47:50;0.90;;;0.73;;
19213;SDS011;9741;51.020;5.304;2023-03-19T11:50:26;0.32;;;0.30;;
19213;SDS011;9741;51.020;5.304;2023-03-19T11:53:09;0.47;;;0.28;;
19213;SDS011;9741;51.020;5.304;2023-03-19T11:55:52;0.28;;;0.28;;
19213;SDS011;9741;51.020;5.304;2023-03-19T11:58:46;5.05;;;0.30;;
19213;SDS011;9741;51.020;5.304;2023-03-19T12:04:34;0.35;;;0.30;;
19213;SDS011;9741;51.020;5.304;2023-03-19T12:07:12;0.22;;;0.22;;
19213;SDS011;9741;51.020;5.304;2023-03-19T12:09:48;0.50;;;0.28;;
19213;SDS011;9741;51.020;5.304;2023-03-19T12:12:29;7.60;;;0.57;;
19213;SDS011;9741;51.020;5.304;2023-03-19T12:15:10;1.70;;;0.30;;
19213;SDS011;9741;51.020;5.304;2023-03-19T12:17:51;0.43;;;0.38;;
19213;SDS011;9741;51.020;5.304;2023-03-19T12:20:30;3.78;;;0.82;;
19213;SDS011;9741;51.020;5.304;2023-03-19T12:23:09;0.95;;;0.50;;
19213;SDS011;9741;51.020;5.304;2023-03-19T12:26:05;0.28;;;0.28;;
19213;SDS011;9741;51.020;5.304;2023-03-19T12:28:35;0.30;;;0.30;;
19213;SDS011;9741;51.020;5.304;2023-03-19T12:34:25;0.77;;;0.50;;
19213;SDS011;9741;51.020;5.304;2023-03-19T12:37:04;0.73;;;0.28;;
19213;SDS011;9741;51.020;5.304;2023-03-19T12:39:39;0.47;;;0.32;;
19213;SDS011;9741;51.020;5.304;2023-03-19T12:42:15;1.02;;;0.45;;
19213;SDS011;9741;51.020;5.304;2023-03-19T12:44:48;1.13;;;0.50;;
19213;SDS011;9741;51.020;5.304;2023-03-19T12:47:23;2.85;;;0.85;;
19213;SDS011;9741;51.020;5.304;2023-03-19T12:49:56;2.70;;;0.80;;
19213;SDS011;9741;51.020;5.304;2023-03-19T12:52:30;0.17;;;0.17;;
19213;SDS011;9741;51.020;5.304;2023-03-19T12:55:03;1.20;;;0.30;;
19213;SDS011;9741;51.020;5.304;2023-03-19T12:57:41;0.22;;;0.22;;
19213;SDS011;9741;51.020;5.304;2023-03-19T13:00:14;0.88;;;0.43;;
19213;SDS011;9741;51.020;5.304;2023-03-19T13:02:51;0.40;;;0.40;;
19213;SDS011;9741;51.020;5.304;2023-03-19T13:05:24;0.40;;;0.40;;
19213;SDS011;9741;51.020;5.304;2023-03-19T13:07:57;0.30;;;0.30;;
19213;SDS011;9741;51.020;5.304;2023-03-19T13:10:31;0.32;;;0.28;;
19213;SDS011;9741;51.020;5.304;2023-03-19T13:12:59;0.38;;;0.38;;
19213;SDS011;9741;51.020;5.304;2023-03-19T13:15:36;0.30;;;0.30;;
19213;SDS011;9741;51.020;5.304;2023-03-19T13:18:14;1.38;;;0.73;;
19213;SDS011;9741;51.020;5.304;2023-03-19T13:21:01;0.30;;;0.30;;
19213;SDS011;9741;51.020;5.304;2023-03-19T13:23:57;0.32;;;0.22;;
19213;SDS011;9741;51.020;5.304;2023-03-19T13:26:30;0.85;;;0.70;;
19213;SDS011;9741;51.020;5.304;2023-03-19T13:29:01;0.63;;;0.63;;
19213;SDS011;9741;51.020;5.304;2023-03-19T13:31:34;0.85;;;0.68;;
19213;SDS011;9741;51.020;5.304;2023-03-19T13:34:05;1.23;;;0.60;;
19213;SDS011;9741;51.020;5.304;2023-03-19T13:36:45;1.00;;;0.90;;
19213;SDS011;9741;51.020;5.304;2023-03-19T13:39:19;2.88;;;0.60;;
19213;SDS011;9741;51.020;5.304;2023-03-19T13:41:57;2.28;;;0.45;;
19213;SDS011;9741;51.020;5.304;2023-03-19T13:44:59;1.25;;;0.70;;
19213;SDS011;9741;51.020;5.304;2023-03-19T13:47:36;3.13;;;0.63;;
19213;SDS011;9741;51.020;5.304;2023-03-19T13:50:28;0.40;;;0.40;;
19213;SDS011;9741;51.020;5.304;2023-03-19T13:53:19;0.40;;;0.40;;
19213;SDS011;9741;51.020;5.304;2023-03-19T13:55:58;0.63;;;0.40;;
19213;SDS011;9741;51.020;5.304;2023-03-19T13:58:28;2.72;;;0.52;;
19213;SDS011;9741;51.020;5.304;2023-03-19T14:04:05;0.22;;;0.22;;
19213;SDS011;9741;51.020;5.304;2023-03-19T14:06:45;0.30;;;0.30;;
19213;SDS011;9741;51.020;5.304;2023-03-19T14:12:09;0.17;;;0.17;;
19213;SDS011;9741;51.020;5.304;2023-03-19T14:14:46;0.60;;;0.32;;
19213;SDS011;9741;51.020;5.304;2023-03-19T14:17:15;0.13;;;0.13;;
19213;SDS011;9741;51.020;5.304;2023-03-19T14:19:48;0.63;;;0.63;;
19213;SDS011;9741;51.020;5.304;2023-03-19T14:22:19;0.40;;;0.40;;
19213;SDS011;9741;51.020;5.304;2023-03-19T14:24:55;0.30;;;0.30;;
19213;SDS011;9741;51.020;5.304;2023-03-19T14:27:44;0.50;;;0.43;;
19213;SDS011;9741;51.020;5.304;2023-03-19T14:30:16;0.70;;;0.60;;
19213;SDS011;9741;51.020;5.304;2023-03-19T14:32:53;1.73;;;0.90;;
19213;SDS011;9741;51.020;5.304;2023-03-19T14:35:23;0.43;;;0.43;;
19213;SDS011;9741;51.020;5.304;2023-03-19T14:37:52;0.82;;;0.60;;
19213;SDS011;9741;51.020;5.304;2023-03-19T14:40:21;2.35;;;0.88;;
19213;SDS011;9741;51.020;5.304;2023-03-19T14:42:55;1.42;;;1.20;;
19213;SDS011;9741;51.020;5.304;2023-03-19T14:45:40;1.73;;;0.80;;
19213;SDS011;9741;51.020;5.304;2023-03-19T14:48:15;2.60;;;0.75;;
19213;SDS011;9741;51.020;5.304;2023-03-19T14:51:12;0.57;;;0.57;;
19213;SDS011;9741;51.020;5.304;2023-03-19T14:53:58;2.25;;;1.10;;
19213;SDS011;9741;51.020;5.304;2023-03-19T14:56:30;1.70;;;0.80;;
19213;SDS011;9741;51.020;5.304;2023-03-19T14:58:59;1.70;;;0.93;;
19213;SDS011;9741;51.020;5.304;2023-03-19T15:01:32;0.65;;;0.55;;
19213;SDS011;9741;51.020;5.304;2023-03-19T15:04:07;6.65;;;1.13;;
19213;SDS011;9741;51.020;5.304;2023-03-19T15:06:37;0.95;;;0.77;;
19213;SDS011;9741;51.020;5.304;2023-03-19T15:09:08;0.90;;;0.77;;
19213;SDS011;9741;51.020;5.304;2023-03-19T15:11:45;0.43;;;0.43;;
19213;SDS011;9741;51.020;5.304;2023-03-19T15:14:30;2.08;;;0.50;;
19213;SDS011;9741;51.020;5.304;2023-03-19T15:17:16;1.77;;;0.93;;
19213;SDS011;9741;51.020;5.304;2023-03-19T15:19:49;6.18;;;1.70;;
19213;SDS011;9741;51.020;5.304;2023-03-19T15:22:18;1.20;;;0.98;;
19213;SDS011;9741;51.020;5.304;2023-03-19T15:24:51;4.60;;;0.65;;
19213;SDS011;9741;51.020;5.304;2023-03-19T15:27:21;0.57;;;0.57;;
19213;SDS011;9741;51.020;5.304;2023-03-19T15:29:51;0.75;;;0.68;;
19213;SDS011;9741;51.020;5.304;2023-03-19T15:32:30;0.77;;;0.73;;
19213;SDS011;9741;51.020;5.304;2023-03-19T15:34:59;3.22;;;1.00;;
19213;SDS011;9741;51.020;5.304;2023-03-19T15:37:28;0.55;;;0.55;;
19213;SDS011;9741;51.020;5.304;2023-03-19T15:40:04;0.57;;;0.57;;